Terminal Aerodrome Forecast
Issued by NWS Brownsville, TX

Home | Current Version | Previous Version | Text Only | Print | Product List | Glossary On
Versions: 1 2 3 4 5 6 7 8 9 10 11 12 13
000
FTUS44 KBRO 241127
TAFHRL
TAF
KHRL 241127Z 2412/2512 15008KT P6SM SCT020
     FM241500 16012KT P6SM SCT035
     FM241800 15017G22KT P6SM SCT040
     FM250100 14014KT P6SM SKC
     FM250600 16008KT P6SM FEW020 SCT250=

USA.gov is the U.S. government's official web portal to all federal, state and local government web resources and services.